Bellevue, Iowa
Current Conditions -  °F | °C
As of 6:53 AM on Sunday 23 Nov 2014 (Local Time) from KDBQ Reporting Station
Haze Haze  
Wind Chill: 42°   Ceiling: 200
Heat Index: 48°   Visibility: 1mi
Dew Point: 48°   Wind: 15mph
Humidity: 100%   Direction: 170°S
Pressure: 29.62"   Gusts: NA
Location:  42.26°N, 90.42°W
Report Text: KDBQ 231253Z 17013KT 1SM R36/5000VP6000FT BR VV002 09/09 A2962 RMK AO2 SLP036 T00890089 $
Loading
Personal Weather Stations






























Interactive Weather Map New forecast layout! Learn more

10-Day Weather Forecast

Advertisements
Track Severe Weather on mobile